Jalhay, Belgium
Current Conditions -  °F | °C
As of 11:25 PM on Sunday 25 Jan 2015 (Local Time) from EBLB Reporting Station
Broken Clouds Broken Clouds  
Wind Chill: 23°   Ceiling: 300
Heat Index: 30°   Visibility: 1.6mi
Dew Point: 30°   Wind: 7mph
Humidity: 100%   Direction: 240°WSW
Pressure: 30.3"   Gusts: NA
Location:  50.56°N, 5.97°E
Report Text: EBLB 252225Z AUTO 24006KT 2700 SCT001/// BKN003/// M01/M01 Q1026 RED
Loading
Personal Weather Stations






























Interactive Weather Map New forecast layout! Learn more

10-Day Weather Forecast

Advertisements
Track Severe Weather on mobile